sensor_id;sensor_type;location;lat;lon;timestamp;temperature;humidity
68439;SHT31;55421;51.600;5.718;2023-03-14T00:01:28;12.93;74.84
68439;SHT31;55421;51.600;5.718;2023-03-14T00:03:55;12.91;74.98
68439;SHT31;55421;51.600;5.718;2023-03-14T00:06:22;12.88;75.16
68439;SHT31;55421;51.600;5.718;2023-03-14T00:08:49;12.85;75.40
68439;SHT31;55421;51.600;5.718;2023-03-14T00:11:18;12.83;75.43
68439;SHT31;55421;51.600;5.718;2023-03-14T00:13:47;12.80;75.44
68439;SHT31;55421;51.600;5.718;2023-03-14T00:16:15;12.77;75.30
68439;SHT31;55421;51.600;5.718;2023-03-14T00:18:42;12.74;75.13
68439;SHT31;55421;51.600;5.718;2023-03-14T00:21:09;12.72;75.04
68439;SHT31;55421;51.600;5.718;2023-03-14T00:23:38;12.68;74.91
68439;SHT31;55421;51.600;5.718;2023-03-14T00:26:11;12.68;74.86
68439;SHT31;55421;51.600;5.718;2023-03-14T00:28:41;12.68;74.74
68439;SHT31;55421;51.600;5.718;2023-03-14T00:31:10;12.66;74.71
68439;SHT31;55421;51.600;5.718;2023-03-14T00:33:41;12.64;74.70
68439;SHT31;55421;51.600;5.718;2023-03-14T00:36:09;12.62;74.70
68439;SHT31;55421;51.600;5.718;2023-03-14T00:38:40;12.59;74.73
68439;SHT31;55421;51.600;5.718;2023-03-14T00:41:09;12.55;74.78
68439;SHT31;55421;51.600;5.718;2023-03-14T00:43:39;12.53;74.49
68439;SHT31;55421;51.600;5.718;2023-03-14T00:46:06;12.49;73.02
68439;SHT31;55421;51.600;5.718;2023-03-14T00:48:33;12.44;72.30
68439;SHT31;55421;51.600;5.718;2023-03-14T00:51:00;12.37;72.30
68439;SHT31;55421;51.600;5.718;2023-03-14T00:53:27;12.30;72.05
68439;SHT31;55421;51.600;5.718;2023-03-14T00:55:54;12.24;71.96
68439;SHT31;55421;51.600;5.718;2023-03-14T00:58:20;12.18;71.68
68439;SHT31;55421;51.600;5.718;2023-03-14T01:00:47;12.17;71.46
68439;SHT31;55421;51.600;5.718;2023-03-14T01:03:14;12.17;71.14
68439;SHT31;55421;51.600;5.718;2023-03-14T01:05:41;12.18;70.99
68439;SHT31;55421;51.600;5.718;2023-03-14T01:08:08;12.17;71.17
68439;SHT31;55421;51.600;5.718;2023-03-14T01:10:37;12.16;71.07
68439;SHT31;55421;51.600;5.718;2023-03-14T01:13:06;12.14;71.14
68439;SHT31;55421;51.600;5.718;2023-03-14T01:15:35;12.14;71.09
68439;SHT31;55421;51.600;5.718;2023-03-14T01:18:03;12.14;70.78
68439;SHT31;55421;51.600;5.718;2023-03-14T01:20:31;12.14;70.60
68439;SHT31;55421;51.600;5.718;2023-03-14T01:22:58;12.14;70.69
68439;SHT31;55421;51.600;5.718;2023-03-14T01:25:24;12.13;70.80
68439;SHT31;55421;51.600;5.718;2023-03-14T01:27:50;12.12;70.90
68439;SHT31;55421;51.600;5.718;2023-03-14T01:30:17;12.10;71.00
68439;SHT31;55421;51.600;5.718;2023-03-14T01:32:43;12.08;71.06
68439;SHT31;55421;51.600;5.718;2023-03-14T01:35:10;12.07;71.04
68439;SHT31;55421;51.600;5.718;2023-03-14T01:37:37;12.08;71.00
68439;SHT31;55421;51.600;5.718;2023-03-14T01:40:03;12.09;71.05
68439;SHT31;55421;51.600;5.718;2023-03-14T01:42:31;12.09;71.00
68439;SHT31;55421;51.600;5.718;2023-03-14T01:44:59;12.07;70.82
68439;SHT31;55421;51.600;5.718;2023-03-14T01:47:27;12.06;70.84
68439;SHT31;55421;51.600;5.718;2023-03-14T01:50:04;12.03;70.77
68439;SHT31;55421;51.600;5.718;2023-03-14T01:52:42;12.00;70.76
68439;SHT31;55421;51.600;5.718;2023-03-14T01:55:14;12.02;70.94
68439;SHT31;55421;51.600;5.718;2023-03-14T01:57:52;12.04;70.97
68439;SHT31;55421;51.600;5.718;2023-03-14T02:00:25;12.04;70.91
68439;SHT31;55421;51.600;5.718;2023-03-14T02:02:56;12.04;70.98
68439;SHT31;55421;51.600;5.718;2023-03-14T02:05:29;12.02;71.02
68439;SHT31;55421;51.600;5.718;2023-03-14T02:08:02;12.00;71.03
68439;SHT31;55421;51.600;5.718;2023-03-14T02:10:38;11.97;71.10
68439;SHT31;55421;51.600;5.718;2023-03-14T02:13:10;11.96;71.11
68439;SHT31;55421;51.600;5.718;2023-03-14T02:15:40;11.95;71.18
68439;SHT31;55421;51.600;5.718;2023-03-14T02:18:07;11.97;71.09
68439;SHT31;55421;51.600;5.718;2023-03-14T02:20:49;11.98;71.19
68439;SHT31;55421;51.600;5.718;2023-03-14T02:26:36;11.97;71.33
68439;SHT31;55421;51.600;5.718;2023-03-14T02:29:07;11.94;71.40
68439;SHT31;55421;51.600;5.718;2023-03-14T02:31:34;11.92;71.46
68439;SHT31;55421;51.600;5.718;2023-03-14T02:34:01;11.90;71.57
68439;SHT31;55421;51.600;5.718;2023-03-14T02:36:29;11.92;71.63
68439;SHT31;55421;51.600;5.718;2023-03-14T02:39:11;11.95;71.60
68439;SHT31;55421;51.600;5.718;2023-03-14T02:41:48;11.98;71.63
68439;SHT31;55421;51.600;5.718;2023-03-14T02:44:15;11.99;71.70
68439;SHT31;55421;51.600;5.718;2023-03-14T02:46:41;11.99;71.78
68439;SHT31;55421;51.600;5.718;2023-03-14T02:49:10;11.98;71.86
68439;SHT31;55421;51.600;5.718;2023-03-14T02:51:40;11.95;71.93
68439;SHT31;55421;51.600;5.718;2023-03-14T02:54:11;11.93;71.98
68439;SHT31;55421;51.600;5.718;2023-03-14T02:56:38;11.93;72.01
68439;SHT31;55421;51.600;5.718;2023-03-14T02:59:05;11.96;72.14
68439;SHT31;55421;51.600;5.718;2023-03-14T03:01:35;11.97;72.29
68439;SHT31;55421;51.600;5.718;2023-03-14T03:04:02;11.96;72.44
68439;SHT31;55421;51.600;5.718;2023-03-14T03:06:29;11.94;72.65
68439;SHT31;55421;51.600;5.718;2023-03-14T03:08:55;11.91;72.83
68439;SHT31;55421;51.600;5.718;2023-03-14T03:11:22;11.87;73.03
68439;SHT31;55421;51.600;5.718;2023-03-14T03:13:48;11.84;73.21
68439;SHT31;55421;51.600;5.718;2023-03-14T03:16:15;11.81;73.36
68439;SHT31;55421;51.600;5.718;2023-03-14T03:18:41;11.80;73.50
68439;SHT31;55421;51.600;5.718;2023-03-14T03:21:08;11.80;73.60
68439;SHT31;55421;51.600;5.718;2023-03-14T03:23:35;11.81;73.69
68439;SHT31;55421;51.600;5.718;2023-03-14T03:26:04;11.81;73.70
68439;SHT31;55421;51.600;5.718;2023-03-14T03:28:31;11.81;73.71
68439;SHT31;55421;51.600;5.718;2023-03-14T03:30:58;11.80;73.79
68439;SHT31;55421;51.600;5.718;2023-03-14T03:33:24;11.78;73.82
68439;SHT31;55421;51.600;5.718;2023-03-14T03:35:51;11.75;73.90
68439;SHT31;55421;51.600;5.718;2023-03-14T03:38:18;11.73;73.98
68439;SHT31;55421;51.600;5.718;2023-03-14T03:40:46;11.72;74.05
68439;SHT31;55421;51.600;5.718;2023-03-14T03:43:12;11.75;74.10
68439;SHT31;55421;51.600;5.718;2023-03-14T03:45:39;11.76;74.08
68439;SHT31;55421;51.600;5.718;2023-03-14T03:48:06;11.75;74.10
68439;SHT31;55421;51.600;5.718;2023-03-14T03:50:32;11.74;74.10
68439;SHT31;55421;51.600;5.718;2023-03-14T03:52:59;11.72;74.12
68439;SHT31;55421;51.600;5.718;2023-03-14T03:55:26;11.71;74.16
68439;SHT31;55421;51.600;5.718;2023-03-14T03:57:54;11.69;74.20
68439;SHT31;55421;51.600;5.718;2023-03-14T04:00:20;11.66;74.30
68439;SHT31;55421;51.600;5.718;2023-03-14T04:02:47;11.65;74.30
68439;SHT31;55421;51.600;5.718;2023-03-14T04:05:14;11.65;74.34
68439;SHT31;55421;51.600;5.718;2023-03-14T04:07:41;11.67;74.30
68439;SHT31;55421;51.600;5.718;2023-03-14T04:10:08;11.68;74.21
68439;SHT31;55421;51.600;5.718;2023-03-14T04:12:35;11.68;74.18
68439;SHT31;55421;51.600;5.718;2023-03-14T04:15:01;11.67;74.19
68439;SHT31;55421;51.600;5.718;2023-03-14T04:17:28;11.65;74.11
68439;SHT31;55421;51.600;5.718;2023-03-14T04:19:55;11.62;74.09
68439;SHT31;55421;51.600;5.718;2023-03-14T04:22:21;11.61;74.05
68439;SHT31;55421;51.600;5.718;2023-03-14T04:24:47;11.58;74.10
68439;SHT31;55421;51.600;5.718;2023-03-14T04:27:16;11.59;74.10
68439;SHT31;55421;51.600;5.718;2023-03-14T04:29:42;11.55;74.12
68439;SHT31;55421;51.600;5.718;2023-03-14T04:32:09;11.52;74.10
68439;SHT31;55421;51.600;5.718;2023-03-14T04:34:36;11.48;74.10
68439;SHT31;55421;51.600;5.718;2023-03-14T04:37:03;11.42;74.20
68439;SHT31;55421;51.600;5.718;2023-03-14T04:39:30;11.37;74.34
68439;SHT31;55421;51.600;5.718;2023-03-14T04:41:56;11.34;74.44
68439;SHT31;55421;51.600;5.718;2023-03-14T04:44:22;11.31;74.57
68439;SHT31;55421;51.600;5.718;2023-03-14T04:46:49;11.30;74.69
68439;SHT31;55421;51.600;5.718;2023-03-14T04:49:15;11.31;74.80
68439;SHT31;55421;51.600;5.718;2023-03-14T04:51:42;11.33;74.92
68439;SHT31;55421;51.600;5.718;2023-03-14T04:54:08;11.34;75.04
68439;SHT31;55421;51.600;5.718;2023-03-14T04:56:35;11.35;75.22
68439;SHT31;55421;51.600;5.718;2023-03-14T04:59:03;11.34;75.40
68439;SHT31;55421;51.600;5.718;2023-03-14T05:01:30;11.30;75.55
68439;SHT31;55421;51.600;5.718;2023-03-14T05:03:57;11.27;75.74
68439;SHT31;55421;51.600;5.718;2023-03-14T05:06:23;11.24;76.01
68439;SHT31;55421;51.600;5.718;2023-03-14T05:08:50;11.24;76.31
68439;SHT31;55421;51.600;5.718;2023-03-14T05:11:16;11.25;76.48
68439;SHT31;55421;51.600;5.718;2023-03-14T05:13:42;11.26;76.67
68439;SHT31;55421;51.600;5.718;2023-03-14T05:16:10;11.27;76.90
68439;SHT31;55421;51.600;5.718;2023-03-14T05:18:37;11.27;77.26
68439;SHT31;55421;51.600;5.718;2023-03-14T05:21:04;11.25;77.77
68439;SHT31;55421;51.600;5.718;2023-03-14T05:23:31;11.19;78.16
68439;SHT31;55421;51.600;5.718;2023-03-14T05:25:57;11.14;78.57
68439;SHT31;55421;51.600;5.718;2023-03-14T05:28:24;11.10;78.83
68439;SHT31;55421;51.600;5.718;2023-03-14T05:30:50;11.08;79.01
68439;SHT31;55421;51.600;5.718;2023-03-14T05:33:17;11.07;79.22
68439;SHT31;55421;51.600;5.718;2023-03-14T05:35:43;11.06;79.46
68439;SHT31;55421;51.600;5.718;2023-03-14T05:38:10;11.03;79.61
68439;SHT31;55421;51.600;5.718;2023-03-14T05:40:36;11.01;79.85
68439;SHT31;55421;51.600;5.718;2023-03-14T05:43:03;10.98;80.06
68439;SHT31;55421;51.600;5.718;2023-03-14T05:45:29;10.95;80.28
68439;SHT31;55421;51.600;5.718;2023-03-14T05:47:56;10.92;80.42
68439;SHT31;55421;51.600;5.718;2023-03-14T05:50:22;10.94;80.56
68439;SHT31;55421;51.600;5.718;2023-03-14T05:52:49;10.95;80.65
68439;SHT31;55421;51.600;5.718;2023-03-14T05:55:15;10.97;80.72
68439;SHT31;55421;51.600;5.718;2023-03-14T05:57:42;10.99;80.80
68439;SHT31;55421;51.600;5.718;2023-03-14T06:00:09;11.01;80.87
68439;SHT31;55421;51.600;5.718;2023-03-14T06:02:36;11.01;80.90
68439;SHT31;55421;51.600;5.718;2023-03-14T06:05:02;11.00;80.94
68439;SHT31;55421;51.600;5.718;2023-03-14T06:07:30;10.99;80.99
68439;SHT31;55421;51.600;5.718;2023-03-14T06:09:56;11.00;81.04
68439;SHT31;55421;51.600;5.718;2023-03-14T06:12:24;11.04;81.10
68439;SHT31;55421;51.600;5.718;2023-03-14T06:14:51;11.09;81.10
68439;SHT31;55421;51.600;5.718;2023-03-14T06:17:17;11.13;81.10
68439;SHT31;55421;51.600;5.718;2023-03-14T06:19:44;11.16;81.13
68439;SHT31;55421;51.600;5.718;2023-03-14T06:22:10;11.19;81.18
68439;SHT31;55421;51.600;5.718;2023-03-14T06:24:36;11.22;81.19
68439;SHT31;55421;51.600;5.718;2023-03-14T06:27:03;11.24;81.20
68439;SHT31;55421;51.600;5.718;2023-03-14T06:29:29;11.26;81.19
68439;SHT31;55421;51.600;5.718;2023-03-14T06:31:56;11.29;81.20
68439;SHT31;55421;51.600;5.718;2023-03-14T06:34:23;11.32;81.27
68439;SHT31;55421;51.600;5.718;2023-03-14T06:36:49;11.33;81.36
68439;SHT31;55421;51.600;5.718;2023-03-14T06:39:16;11.35;81.40
68439;SHT31;55421;51.600;5.718;2023-03-14T06:41:42;11.35;81.42
68439;SHT31;55421;51.600;5.718;2023-03-14T06:44:13;11.36;81.57
68439;SHT31;55421;51.600;5.718;2023-03-14T06:46:39;11.36;81.65
68439;SHT31;55421;51.600;5.718;2023-03-14T06:49:06;11.37;81.69
68439;SHT31;55421;51.600;5.718;2023-03-14T06:51:32;11.39;81.68
68439;SHT31;55421;51.600;5.718;2023-03-14T06:54:00;11.42;81.67
68439;SHT31;55421;51.600;5.718;2023-03-14T06:56:26;11.46;81.67
68439;SHT31;55421;51.600;5.718;2023-03-14T06:58:52;11.51;81.70
68439;SHT31;55421;51.600;5.718;2023-03-14T07:03:54;11.55;81.60
68439;SHT31;55421;51.600;5.718;2023-03-14T07:06:21;11.56;81.65
68439;SHT31;55421;51.600;5.718;2023-03-14T07:08:48;11.58;81.66
68439;SHT31;55421;51.600;5.718;2023-03-14T07:11:15;11.63;81.68
68439;SHT31;55421;51.600;5.718;2023-03-14T07:13:41;11.67;81.63
68439;SHT31;55421;51.600;5.718;2023-03-14T07:16:08;11.69;81.64
68439;SHT31;55421;51.600;5.718;2023-03-14T07:18:35;11.71;81.69
68439;SHT31;55421;51.600;5.718;2023-03-14T07:21:03;11.74;81.69
68439;SHT31;55421;51.600;5.718;2023-03-14T07:23:38;11.78;81.65
68439;SHT31;55421;51.600;5.718;2023-03-14T07:26:04;11.80;81.58
68439;SHT31;55421;51.600;5.718;2023-03-14T07:28:31;11.81;81.50
68439;SHT31;55421;51.600;5.718;2023-03-14T07:30:58;11.79;81.43
68439;SHT31;55421;51.600;5.718;2023-03-14T07:33:24;11.76;81.50
68439;SHT31;55421;51.600;5.718;2023-03-14T07:35:51;11.72;81.51
68439;SHT31;55421;51.600;5.718;2023-03-14T07:38:18;11.68;81.62
68439;SHT31;55421;51.600;5.718;2023-03-14T07:40:44;11.66;81.76
68439;SHT31;55421;51.600;5.718;2023-03-14T07:43:10;11.61;81.89
68439;SHT31;55421;51.600;5.718;2023-03-14T07:45:37;11.47;81.25
68439;SHT31;55421;51.600;5.718;2023-03-14T07:48:04;11.21;80.09
68439;SHT31;55421;51.600;5.718;2023-03-14T07:50:30;10.91;79.40
68439;SHT31;55421;51.600;5.718;2023-03-14T07:52:57;10.65;79.38
68439;SHT31;55421;51.600;5.718;2023-03-14T07:55:23;10.43;79.37
68439;SHT31;55421;51.600;5.718;2023-03-14T07:57:50;10.22;79.39
68439;SHT31;55421;51.600;5.718;2023-03-14T08:00:16;10.05;79.72
68439;SHT31;55421;51.600;5.718;2023-03-14T08:02:43;9.95;80.14
68439;SHT31;55421;51.600;5.718;2023-03-14T08:05:10;9.88;80.55
68439;SHT31;55421;51.600;5.718;2023-03-14T08:07:36;9.80;80.82
68439;SHT31;55421;51.600;5.718;2023-03-14T08:10:03;9.72;80.92
68439;SHT31;55421;51.600;5.718;2023-03-14T08:12:31;9.67;81.34
68439;SHT31;55421;51.600;5.718;2023-03-14T08:14:59;9.68;81.60
68439;SHT31;55421;51.600;5.718;2023-03-14T08:17:26;9.67;81.67
68439;SHT31;55421;51.600;5.718;2023-03-14T08:19:53;9.66;81.64
68439;SHT31;55421;51.600;5.718;2023-03-14T08:22:19;9.64;81.70
68439;SHT31;55421;51.600;5.718;2023-03-14T08:24:45;9.63;81.71
68439;SHT31;55421;51.600;5.718;2023-03-14T08:27:12;9.56;81.76
68439;SHT31;55421;51.600;5.718;2023-03-14T08:29:40;9.54;82.01
68439;SHT31;55421;51.600;5.718;2023-03-14T08:32:08;9.59;82.01
68439;SHT31;55421;51.600;5.718;2023-03-14T08:34:34;9.62;81.86
68439;SHT31;55421;51.600;5.718;2023-03-14T08:37:01;9.66;81.92
68439;SHT31;55421;51.600;5.718;2023-03-14T08:39:27;9.71;81.82
68439;SHT31;55421;51.600;5.718;2023-03-14T08:41:54;9.79;81.89
68439;SHT31;55421;51.600;5.718;2023-03-14T08:44:20;9.85;81.64
68439;SHT31;55421;51.600;5.718;2023-03-14T08:46:47;9.87;81.20
68439;SHT31;55421;51.600;5.718;2023-03-14T08:49:13;9.86;81.17
68439;SHT31;55421;51.600;5.718;2023-03-14T08:51:40;9.87;81.30
68439;SHT31;55421;51.600;5.718;2023-03-14T08:54:09;9.93;81.16
68439;SHT31;55421;51.600;5.718;2023-03-14T08:56:37;9.92;80.75
68439;SHT31;55421;51.600;5.718;2023-03-14T08:59:04;9.87;80.62
68439;SHT31;55421;51.600;5.718;2023-03-14T09:01:31;9.77;80.38
68439;SHT31;55421;51.600;5.718;2023-03-14T09:03:58;9.67;80.30
68439;SHT31;55421;51.600;5.718;2023-03-14T09:06:25;9.62;80.60
68439;SHT31;55421;51.600;5.718;2023-03-14T09:08:51;9.62;80.84
68439;SHT31;55421;51.600;5.718;2023-03-14T09:11:18;9.60;80.72
68439;SHT31;55421;51.600;5.718;2023-03-14T09:13:44;9.55;80.45
68439;SHT31;55421;51.600;5.718;2023-03-14T09:16:14;9.52;80.53
68439;SHT31;55421;51.600;5.718;2023-03-14T09:18:41;9.53;80.39
68439;SHT31;55421;51.600;5.718;2023-03-14T09:21:08;9.49;80.21
68439;SHT31;55421;51.600;5.718;2023-03-14T09:23:34;9.51;80.42
68439;SHT31;55421;51.600;5.718;2023-03-14T09:26:00;9.51;80.44
68439;SHT31;55421;51.600;5.718;2023-03-14T09:28:27;9.52;80.57
68439;SHT31;55421;51.600;5.718;2023-03-14T09:30:54;9.51;80.30
68439;SHT31;55421;51.600;5.718;2023-03-14T09:33:20;9.46;80.07
68439;SHT31;55421;51.600;5.718;2023-03-14T09:35:47;9.29;79.00
68439;SHT31;55421;51.600;5.718;2023-03-14T09:38:13;9.06;78.69
68439;SHT31;55421;51.600;5.718;2023-03-14T09:40:40;8.84;78.52
68439;SHT31;55421;51.600;5.718;2023-03-14T09:43:11;8.69;78.87
68439;SHT31;55421;51.600;5.718;2023-03-14T09:45:41;8.60;79.10
68439;SHT31;55421;51.600;5.718;2023-03-14T09:48:20;8.51;78.92
68439;SHT31;55421;51.600;5.718;2023-03-14T09:50:53;8.44;79.00
68439;SHT31;55421;51.600;5.718;2023-03-14T09:53:37;8.46;78.94
68439;SHT31;55421;51.600;5.718;2023-03-14T09:56:16;8.54;78.58
68439;SHT31;55421;51.600;5.718;2023-03-14T09:58:54;8.66;78.60
68439;SHT31;55421;51.600;5.718;2023-03-14T10:01:29;8.78;78.38
68439;SHT31;55421;51.600;5.718;2023-03-14T10:04:12;8.86;77.78
68439;SHT31;55421;51.600;5.718;2023-03-14T10:06:43;8.93;77.51
68439;SHT31;55421;51.600;5.718;2023-03-14T10:09:14;9.01;77.61
68439;SHT31;55421;51.600;5.718;2023-03-14T10:11:52;9.07;77.48
68439;SHT31;55421;51.600;5.718;2023-03-14T10:14:29;9.08;76.94
68439;SHT31;55421;51.600;5.718;2023-03-14T10:17:09;9.09;76.25
68439;SHT31;55421;51.600;5.718;2023-03-14T10:19:51;9.09;76.07
68439;SHT31;55421;51.600;5.718;2023-03-14T10:22:29;9.08;75.86
68439;SHT31;55421;51.600;5.718;2023-03-14T10:25:04;9.06;75.29
68439;SHT31;55421;51.600;5.718;2023-03-14T10:27:49;9.00;75.00
68439;SHT31;55421;51.600;5.718;2023-03-14T10:35:56;8.87;74.50
68439;SHT31;55421;51.600;5.718;2023-03-14T10:38:27;8.92;74.38
68439;SHT31;55421;51.600;5.718;2023-03-14T10:41:00;8.98;73.97
68439;SHT31;55421;51.600;5.718;2023-03-14T10:43:33;9.04;73.47
68439;SHT31;55421;51.600;5.718;2023-03-14T10:46:18;9.10;73.33
68439;SHT31;55421;51.600;5.718;2023-03-14T10:48:46;9.18;73.30
68439;SHT31;55421;51.600;5.718;2023-03-14T10:53:48;9.31;71.90
68439;SHT31;55421;51.600;5.718;2023-03-14T10:56:23;9.35;71.07
68439;SHT31;55421;51.600;5.718;2023-03-14T10:58:53;9.40;70.98
68439;SHT31;55421;51.600;5.718;2023-03-14T11:01:41;9.44;70.46
68439;SHT31;55421;51.600;5.718;2023-03-14T11:07:06;9.52;70.42
68439;SHT31;55421;51.600;5.718;2023-03-14T11:13:02;9.51;70.00
68439;SHT31;55421;51.600;5.718;2023-03-14T11:31:14;9.63;69.73
68439;SHT31;55421;51.600;5.718;2023-03-14T11:37:07;9.05;71.14
68439;SHT31;55421;51.600;5.718;2023-03-14T11:39:56;8.78;70.50
68439;SHT31;55421;51.600;5.718;2023-03-14T11:42:34;8.57;70.39
68439;SHT31;55421;51.600;5.718;2023-03-14T11:45:01;8.47;70.37
68439;SHT31;55421;51.600;5.718;2023-03-14T11:47:34;8.51;70.59
68439;SHT31;55421;51.600;5.718;2023-03-14T11:50:12;8.58;70.56
68439;SHT31;55421;51.600;5.718;2023-03-14T11:53:02;8.73;70.66
68439;SHT31;55421;51.600;5.718;2023-03-14T11:55:43;8.86;70.35
68439;SHT31;55421;51.600;5.718;2023-03-14T11:58:14;8.98;70.98
68439;SHT31;55421;51.600;5.718;2023-03-14T12:00:45;9.13;71.03
68439;SHT31;55421;51.600;5.718;2023-03-14T12:06:24;9.11;70.31
68439;SHT31;55421;51.600;5.718;2023-03-14T12:09:17;9.03;69.99
68439;SHT31;55421;51.600;5.718;2023-03-14T12:11:56;9.00;70.04
68439;SHT31;55421;51.600;5.718;2023-03-14T12:14:28;8.95;69.33
68439;SHT31;55421;51.600;5.718;2023-03-14T12:17:06;8.85;69.11
68439;SHT31;55421;51.600;5.718;2023-03-14T12:19:46;8.78;68.53
68439;SHT31;55421;51.600;5.718;2023-03-14T12:22:54;8.68;68.16
68439;SHT31;55421;51.600;5.718;2023-03-14T12:25:30;8.63;67.96
68439;SHT31;55421;51.600;5.718;2023-03-14T12:30:56;8.82;69.15
68439;SHT31;55421;51.600;5.718;2023-03-14T12:33:29;8.94;68.43
68439;SHT31;55421;51.600;5.718;2023-03-14T12:35:57;9.04;68.03
68439;SHT31;55421;51.600;5.718;2023-03-14T12:41:19;9.19;67.23
68439;SHT31;55421;51.600;5.718;2023-03-14T12:46:59;9.35;66.12
68439;SHT31;55421;51.600;5.718;2023-03-14T12:49:40;9.40;65.24
68439;SHT31;55421;51.600;5.718;2023-03-14T12:52:12;9.37;64.78
68439;SHT31;55421;51.600;5.718;2023-03-14T12:58:08;9.36;63.80
68439;SHT31;55421;51.600;5.718;2023-03-14T13:00:44;9.47;63.94
68439;SHT31;55421;51.600;5.718;2023-03-14T13:03:25;9.66;64.15
68439;SHT31;55421;51.600;5.718;2023-03-14T13:06:03;9.85;61.83
68439;SHT31;55421;51.600;5.718;2023-03-14T13:08:42;9.92;59.51
68439;SHT31;55421;51.600;5.718;2023-03-14T13:11:20;9.94;57.93
68439;SHT31;55421;51.600;5.718;2023-03-14T13:13:50;9.95;58.14
68439;SHT31;55421;51.600;5.718;2023-03-14T13:16:23;10.03;58.32
68439;SHT31;55421;51.600;5.718;2023-03-14T13:18:50;10.11;57.35
68439;SHT31;55421;51.600;5.718;2023-03-14T13:21:28;10.19;57.38
68439;SHT31;55421;51.600;5.718;2023-03-14T13:24:06;10.28;56.46
68439;SHT31;55421;51.600;5.718;2023-03-14T13:26:54;10.27;55.14
68439;SHT31;55421;51.600;5.718;2023-03-14T13:29:24;10.30;54.87
68439;SHT31;55421;51.600;5.718;2023-03-14T13:32:00;10.32;54.95
68439;SHT31;55421;51.600;5.718;2023-03-14T13:34:38;10.35;55.22
68439;SHT31;55421;51.600;5.718;2023-03-14T13:37:14;10.39;54.77
68439;SHT31;55421;51.600;5.718;2023-03-14T13:39:55;10.44;55.14
68439;SHT31;55421;51.600;5.718;2023-03-14T13:42:26;10.48;55.43
68439;SHT31;55421;51.600;5.718;2023-03-14T13:44:56;10.49;53.97
68439;SHT31;55421;51.600;5.718;2023-03-14T13:47:24;10.47;53.23
68439;SHT31;55421;51.600;5.718;2023-03-14T13:49:52;10.48;53.25
68439;SHT31;55421;51.600;5.718;2023-03-14T13:55:03;10.51;52.20
68439;SHT31;55421;51.600;5.718;2023-03-14T13:57:43;10.49;52.30
68439;SHT31;55421;51.600;5.718;2023-03-14T14:00:20;10.47;52.06
68439;SHT31;55421;51.600;5.718;2023-03-14T14:02:53;10.45;51.90
68439;SHT31;55421;51.600;5.718;2023-03-14T14:05:23;10.46;51.82
68439;SHT31;55421;51.600;5.718;2023-03-14T14:07:54;10.47;50.49
68439;SHT31;55421;51.600;5.718;2023-03-14T14:10:21;10.49;50.98
68439;SHT31;55421;51.600;5.718;2023-03-14T14:12:59;10.55;51.37
68439;SHT31;55421;51.600;5.718;2023-03-14T14:15:31;10.55;50.90
68439;SHT31;55421;51.600;5.718;2023-03-14T14:18:04;10.54;49.97
68439;SHT31;55421;51.600;5.718;2023-03-14T14:20:37;10.52;49.70
68439;SHT31;55421;51.600;5.718;2023-03-14T14:23:10;10.46;48.27
68439;SHT31;55421;51.600;5.718;2023-03-14T14:25:44;10.34;47.38
68439;SHT31;55421;51.600;5.718;2023-03-14T14:28:29;10.19;47.19
68439;SHT31;55421;51.600;5.718;2023-03-14T14:33:41;9.98;48.07
68439;SHT31;55421;51.600;5.718;2023-03-14T14:36:15;9.93;48.48
68439;SHT31;55421;51.600;5.718;2023-03-14T14:38:49;9.95;49.62
68439;SHT31;55421;51.600;5.718;2023-03-14T14:41:28;9.98;49.17
68439;SHT31;55421;51.600;5.718;2023-03-14T14:43:57;9.95;49.03
68439;SHT31;55421;51.600;5.718;2023-03-14T14:46:27;9.93;50.35
68439;SHT31;55421;51.600;5.718;2023-03-14T14:48:58;9.97;50.82
68439;SHT31;55421;51.600;5.718;2023-03-14T14:51:34;9.99;49.71
68439;SHT31;55421;51.600;5.718;2023-03-14T14:54:11;9.99;49.22
68439;SHT31;55421;51.600;5.718;2023-03-14T14:56:48;9.95;48.44
68439;SHT31;55421;51.600;5.718;2023-03-14T14:59:20;9.88;48.23
68439;SHT31;55421;51.600;5.718;2023-03-14T15:01:50;9.86;47.77
68439;SHT31;55421;51.600;5.718;2023-03-14T15:04:23;9.77;46.78
68439;SHT31;55421;51.600;5.718;2023-03-14T15:06:51;9.70;47.73
68439;SHT31;55421;51.600;5.718;2023-03-14T15:09:19;9.61;47.11
68439;SHT31;55421;51.600;5.718;2023-03-14T15:11:46;9.53;47.55
68439;SHT31;55421;51.600;5.718;2023-03-14T15:14:14;9.44;47.26
68439;SHT31;55421;51.600;5.718;2023-03-14T15:16:41;9.31;47.17
68439;SHT31;55421;51.600;5.718;2023-03-14T15:19:12;9.19;47.22
68439;SHT31;55421;51.600;5.718;2023-03-14T15:21:46;9.11;48.27
68439;SHT31;55421;51.600;5.718;2023-03-14T15:24:13;9.10;49.40
68439;SHT31;55421;51.600;5.718;2023-03-14T15:26:39;9.08;49.40
68439;SHT31;55421;51.600;5.718;2023-03-14T15:29:06;9.03;49.29
68439;SHT31;55421;51.600;5.718;2023-03-14T15:31:38;8.98;49.79
68439;SHT31;55421;51.600;5.718;2023-03-14T15:34:06;8.91;49.46
68439;SHT31;55421;51.600;5.718;2023-03-14T15:36:33;8.84;49.72
68439;SHT31;55421;51.600;5.718;2023-03-14T15:39:01;8.80;50.71
68439;SHT31;55421;51.600;5.718;2023-03-14T15:41:32;8.77;51.00
68439;SHT31;55421;51.600;5.718;2023-03-14T15:43:59;8.68;50.96
68439;SHT31;55421;51.600;5.718;2023-03-14T15:46:25;8.60;51.56
68439;SHT31;55421;51.600;5.718;2023-03-14T15:48:52;8.54;51.36
68439;SHT31;55421;51.600;5.718;2023-03-14T15:51:18;8.45;50.88
68439;SHT31;55421;51.600;5.718;2023-03-14T15:53:45;8.35;51.05
68439;SHT31;55421;51.600;5.718;2023-03-14T15:56:14;8.29;51.28
68439;SHT31;55421;51.600;5.718;2023-03-14T15:58:45;8.21;51.06
68439;SHT31;55421;51.600;5.718;2023-03-14T16:01:15;8.15;50.89
68439;SHT31;55421;51.600;5.718;2023-03-14T16:03:43;8.09;51.02
68439;SHT31;55421;51.600;5.718;2023-03-14T16:06:15;8.03;51.02
68439;SHT31;55421;51.600;5.718;2023-03-14T16:08:41;7.98;51.19
68439;SHT31;55421;51.600;5.718;2023-03-14T16:11:11;7.96;51.86
68439;SHT31;55421;51.600;5.718;2023-03-14T16:13:40;7.95;52.65
68439;SHT31;55421;51.600;5.718;2023-03-14T16:16:07;7.94;52.51
68439;SHT31;55421;51.600;5.718;2023-03-14T16:18:35;7.89;52.16
68439;SHT31;55421;51.600;5.718;2023-03-14T16:21:08;7.86;52.50
68439;SHT31;55421;51.600;5.718;2023-03-14T16:23:39;7.81;52.92
68439;SHT31;55421;51.600;5.718;2023-03-14T16:26:07;7.82;53.62
68439;SHT31;55421;51.600;5.718;2023-03-14T16:28:45;7.80;54.15
68439;SHT31;55421;51.600;5.718;2023-03-14T16:31:14;7.76;53.80
68439;SHT31;55421;51.600;5.718;2023-03-14T16:33:46;7.71;52.77
68439;SHT31;55421;51.600;5.718;2023-03-14T16:36:13;7.63;52.73
68439;SHT31;55421;51.600;5.718;2023-03-14T16:38:40;7.59;52.71
68439;SHT31;55421;51.600;5.718;2023-03-14T16:41:16;7.53;52.71
68439;SHT31;55421;51.600;5.718;2023-03-14T16:43:45;7.48;52.42
68439;SHT31;55421;51.600;5.718;2023-03-14T16:46:18;7.43;52.37
68439;SHT31;55421;51.600;5.718;2023-03-14T16:48:47;7.38;52.59
68439;SHT31;55421;51.600;5.718;2023-03-14T16:51:13;7.32;53.18
68439;SHT31;55421;51.600;5.718;2023-03-14T16:53:41;7.30;53.62